Horn, Sweden

12:59 PM CEST on May 22, 2015 (GMT +0200)
Falerum | | Change Station
CLOSE
Current Station
Personal Weather Station
Location: Atvidaberg, OSTERGoTLAND
Elevation: 174 ft
Nearby Weather Stations

Elev 174 ft 58.15 °N, 16.21 °E | Updated 7 seconds ago

Mostly Cloudy
Mostly Cloudy
54.5 °F
Feels Like 54.5 °F
N
4.5
Wind Variable Wind from SSW
Gusts 22.1 mph

Today
High -- | Low -- °F
--% Chance of Precip.
Yesterday
High -- | Low -- °F
Precip. -- in
4:20 AM 9:27 PM
Waxing Crescent, 20% visible
Pressure 30.06 in
Visibility 6.2 miles
Clouds Few 2800 ft
Mostly Cloudy 3400 ft
Dew Point 40 °F
Humidity 59%
Rainfall 0.00 in
Snow Depth Not available.
UV 4 out of 12
Pollen Not available.
Air Quality Not available.
Flu Activity Not available.
METAR ESSL 221050Z 23010KT 180V250 9999 FEW028 BKN034 13/06 Q1018

More Conditions Fewer Conditions

Pressure 30.06 in
Visibility 6.2 miles
Clouds Few 2800 ft
Mostly Cloudy 3400 ft
Dew Point 40 °F
Humidity 59%
Rainfall 0.00 in
Snow Depth Not available.
UV 4 out of 12
Pollen Not available.
Air Quality Not available.
Flu Activity Not available.
METAR ESSL 221050Z 23010KT 180V250 9999 FEW028 BKN034 13/06 Q1018

More Conditions Fewer Conditions

10-Day Weather Forecast

Almanac

Astronomy

May. 22, 2015 Rise Set
Actual Time
Civil Twilight
Nautical Twilight
Astronomical Twilight
Moon
Length of Visible Light
Length of Day
Tomorrow will be .
, % of the Moon is Illuminated

Today's Extremes

Country Highs Country Lows

Community

WunderPhotos

Upload Photos

1,823,200 photos uploaded!

WunderBlogs® & News

Nearby

Air Quality

  Air Quality AQ Index Pollutant
Not available.

Snow Depth

Station Depth Elevation

Earthquake Activity

City Distance Mag. Time & Date
Minimum magnitude displayed is 2.5.

Coastal Water Temperatures

Place Temperature

Stations

Nearby Weather Stations

Station Location Temp. Windchill Dew Point Humidity Wind Precip. Elev Updated Type